sensor_id;sensor_type;location;lat;lon;timestamp;temperature;humidity
53264;DHT22;39153;52.680;6.172;2023-09-12T00:01:09;21.40;99.90
53264;DHT22;39153;52.680;6.172;2023-09-12T00:03:35;21.40;99.90
53264;DHT22;39153;52.680;6.172;2023-09-12T00:06:02;21.40;99.90
53264;DHT22;39153;52.680;6.172;2023-09-12T00:08:28;21.40;99.90
53264;DHT22;39153;52.680;6.172;2023-09-12T00:13:25;21.40;99.90
53264;DHT22;39153;52.680;6.172;2023-09-12T00:15:51;21.40;99.90
53264;DHT22;39153;52.680;6.172;2023-09-12T00:18:16;21.50;99.90
53264;DHT22;39153;52.680;6.172;2023-09-12T00:20:42;21.40;99.90
53264;DHT22;39153;52.680;6.172;2023-09-12T00:23:08;21.40;99.90
53264;DHT22;39153;52.680;6.172;2023-09-12T00:25:33;21.30;99.90
53264;DHT22;39153;52.680;6.172;2023-09-12T00:27:59;21.20;99.90
53264;DHT22;39153;52.680;6.172;2023-09-12T00:30:25;21.30;99.90
53264;DHT22;39153;52.680;6.172;2023-09-12T00:32:50;21.20;99.90
53264;DHT22;39153;52.680;6.172;2023-09-12T00:35:16;21.10;99.90
53264;DHT22;39153;52.680;6.172;2023-09-12T00:37:42;21.10;99.90
53264;DHT22;39153;52.680;6.172;2023-09-12T00:40:07;21.00;99.90
53264;DHT22;39153;52.680;6.172;2023-09-12T00:42:33;21.10;99.90
53264;DHT22;39153;52.680;6.172;2023-09-12T00:44:59;21.00;99.90
53264;DHT22;39153;52.680;6.172;2023-09-12T00:47:26;21.00;99.90
53264;DHT22;39153;52.680;6.172;2023-09-12T00:49:53;21.00;99.90
53264;DHT22;39153;52.680;6.172;2023-09-12T00:52:20;21.00;99.90
53264;DHT22;39153;52.680;6.172;2023-09-12T00:54:47;21.00;99.90
53264;DHT22;39153;52.680;6.172;2023-09-12T00:57:13;21.00;99.90
53264;DHT22;39153;52.680;6.172;2023-09-12T00:59:39;21.00;99.90
53264;DHT22;39153;52.680;6.172;2023-09-12T01:02:05;21.00;99.90
53264;DHT22;39153;52.680;6.172;2023-09-12T01:04:31;21.00;99.90
53264;DHT22;39153;52.680;6.172;2023-09-12T01:06:58;20.90;99.90
53264;DHT22;39153;52.680;6.172;2023-09-12T01:09:24;20.90;99.90
53264;DHT22;39153;52.680;6.172;2023-09-12T01:11:50;20.80;99.90
53264;DHT22;39153;52.680;6.172;2023-09-12T01:14:16;20.80;99.90
53264;DHT22;39153;52.680;6.172;2023-09-12T01:16:41;20.70;99.90
53264;DHT22;39153;52.680;6.172;2023-09-12T01:19:08;20.70;99.90
53264;DHT22;39153;52.680;6.172;2023-09-12T01:29:46;20.60;99.90
53264;DHT22;39153;52.680;6.172;2023-09-12T01:32:14;20.50;99.90
53264;DHT22;39153;52.680;6.172;2023-09-12T01:34:40;20.50;99.90
53264;DHT22;39153;52.680;6.172;2023-09-12T01:37:05;20.50;99.90
53264;DHT22;39153;52.680;6.172;2023-09-12T01:39:31;20.40;99.90
53264;DHT22;39153;52.680;6.172;2023-09-12T01:41:59;20.50;99.90
53264;DHT22;39153;52.680;6.172;2023-09-12T01:44:25;20.40;99.90
53264;DHT22;39153;52.680;6.172;2023-09-12T01:46:53;20.40;99.90
53264;DHT22;39153;52.680;6.172;2023-09-12T01:49:22;20.40;99.90
53264;DHT22;39153;52.680;6.172;2023-09-12T01:51:48;20.30;99.90
53264;DHT22;39153;52.680;6.172;2023-09-12T01:54:14;20.40;99.90
53264;DHT22;39153;52.680;6.172;2023-09-12T01:56:41;20.40;99.90
53264;DHT22;39153;52.680;6.172;2023-09-12T01:59:07;20.40;99.90
53264;DHT22;39153;52.680;6.172;2023-09-12T02:01:33;20.40;99.90
53264;DHT22;39153;52.680;6.172;2023-09-12T02:03:59;20.40;99.90
53264;DHT22;39153;52.680;6.172;2023-09-12T02:06:24;20.40;99.90
53264;DHT22;39153;52.680;6.172;2023-09-12T02:08:50;20.30;99.90
53264;DHT22;39153;52.680;6.172;2023-09-12T02:11:16;20.30;99.90
53264;DHT22;39153;52.680;6.172;2023-09-12T02:13:41;20.20;99.90
53264;DHT22;39153;52.680;6.172;2023-09-12T02:16:07;20.30;99.90
53264;DHT22;39153;52.680;6.172;2023-09-12T02:18:33;20.20;99.90
53264;DHT22;39153;52.680;6.172;2023-09-12T02:20:59;20.20;99.90
53264;DHT22;39153;52.680;6.172;2023-09-12T02:23:24;20.20;99.90
53264;DHT22;39153;52.680;6.172;2023-09-12T02:25:50;20.10;99.90
53264;DHT22;39153;52.680;6.172;2023-09-12T02:28:16;20.10;99.90
53264;DHT22;39153;52.680;6.172;2023-09-12T02:30:41;20.00;99.90
53264;DHT22;39153;52.680;6.172;2023-09-12T02:33:07;20.10;99.90
53264;DHT22;39153;52.680;6.172;2023-09-12T02:35:32;20.00;99.90
53264;DHT22;39153;52.680;6.172;2023-09-12T02:37:58;20.00;99.90
53264;DHT22;39153;52.680;6.172;2023-09-12T02:40:24;20.00;99.90
53264;DHT22;39153;52.680;6.172;2023-09-12T02:42:50;20.00;99.90
53264;DHT22;39153;52.680;6.172;2023-09-12T02:45:16;20.00;99.90
53264;DHT22;39153;52.680;6.172;2023-09-12T02:47:42;20.00;99.90
53264;DHT22;39153;52.680;6.172;2023-09-12T02:50:09;19.90;99.90
53264;DHT22;39153;52.680;6.172;2023-09-12T02:52:35;19.80;99.90
53264;DHT22;39153;52.680;6.172;2023-09-12T02:55:00;19.90;99.90
53264;DHT22;39153;52.680;6.172;2023-09-12T02:57:26;19.90;99.90
53264;DHT22;39153;52.680;6.172;2023-09-12T02:59:52;19.80;99.90
53264;DHT22;39153;52.680;6.172;2023-09-12T03:02:17;19.80;99.90
53264;DHT22;39153;52.680;6.172;2023-09-12T03:04:43;19.70;99.90
53264;DHT22;39153;52.680;6.172;2023-09-12T03:07:09;19.80;99.90
53264;DHT22;39153;52.680;6.172;2023-09-12T03:09:34;19.70;99.90
53264;DHT22;39153;52.680;6.172;2023-09-12T03:12:06;19.70;99.90
53264;DHT22;39153;52.680;6.172;2023-09-12T03:14:32;19.70;99.90
53264;DHT22;39153;52.680;6.172;2023-09-12T03:16:58;19.60;99.90
53264;DHT22;39153;52.680;6.172;2023-09-12T03:19:24;19.50;99.90
53264;DHT22;39153;52.680;6.172;2023-09-12T03:21:49;19.60;99.90
53264;DHT22;39153;52.680;6.172;2023-09-12T03:24:15;19.50;99.90
53264;DHT22;39153;52.680;6.172;2023-09-12T03:26:43;19.40;99.90
53264;DHT22;39153;52.680;6.172;2023-09-12T03:29:09;19.40;99.90
53264;DHT22;39153;52.680;6.172;2023-09-12T03:31:35;19.30;99.90
53264;DHT22;39153;52.680;6.172;2023-09-12T03:34:01;19.40;99.90
53264;DHT22;39153;52.680;6.172;2023-09-12T03:36:27;19.30;99.90
53264;DHT22;39153;52.680;6.172;2023-09-12T03:38:52;19.20;99.90
53264;DHT22;39153;52.680;6.172;2023-09-12T03:41:18;19.10;99.90
53264;DHT22;39153;52.680;6.172;2023-09-12T03:43:44;19.00;99.90
53264;DHT22;39153;52.680;6.172;2023-09-12T03:46:09;18.90;99.90
53264;DHT22;39153;52.680;6.172;2023-09-12T03:48:35;18.90;99.90
53264;DHT22;39153;52.680;6.172;2023-09-12T03:51:03;18.90;99.90
53264;DHT22;39153;52.680;6.172;2023-09-12T03:53:29;18.90;99.90
53264;DHT22;39153;52.680;6.172;2023-09-12T03:55:55;18.90;99.90
53264;DHT22;39153;52.680;6.172;2023-09-12T03:58:21;18.80;99.90
53264;DHT22;39153;52.680;6.172;2023-09-12T04:00:47;18.80;99.90
53264;DHT22;39153;52.680;6.172;2023-09-12T04:03:12;18.70;99.90
53264;DHT22;39153;52.680;6.172;2023-09-12T04:05:38;18.80;99.90
53264;DHT22;39153;52.680;6.172;2023-09-12T04:08:04;18.70;99.90
53264;DHT22;39153;52.680;6.172;2023-09-12T04:10:30;18.60;99.90
53264;DHT22;39153;52.680;6.172;2023-09-12T04:12:57;18.70;99.90
53264;DHT22;39153;52.680;6.172;2023-09-12T04:15:23;18.80;99.90
53264;DHT22;39153;52.680;6.172;2023-09-12T04:17:49;18.70;99.90
53264;DHT22;39153;52.680;6.172;2023-09-12T04:20:15;18.70;99.90
53264;DHT22;39153;52.680;6.172;2023-09-12T04:22:42;18.70;99.90
53264;DHT22;39153;52.680;6.172;2023-09-12T04:25:08;18.70;99.90
53264;DHT22;39153;52.680;6.172;2023-09-12T04:27:34;18.60;99.90
53264;DHT22;39153;52.680;6.172;2023-09-12T04:30:00;18.70;99.90
53264;DHT22;39153;52.680;6.172;2023-09-12T04:32:25;18.70;99.90
53264;DHT22;39153;52.680;6.172;2023-09-12T04:34:51;18.70;99.90
53264;DHT22;39153;52.680;6.172;2023-09-12T04:37:17;18.60;99.90
53264;DHT22;39153;52.680;6.172;2023-09-12T04:39:44;18.60;99.90
53264;DHT22;39153;52.680;6.172;2023-09-12T04:42:10;18.60;99.90
53264;DHT22;39153;52.680;6.172;2023-09-12T04:44:40;18.50;99.90
53264;DHT22;39153;52.680;6.172;2023-09-12T04:47:05;18.60;99.90
53264;DHT22;39153;52.680;6.172;2023-09-12T04:49:31;18.50;99.90
53264;DHT22;39153;52.680;6.172;2023-09-12T04:51:57;18.40;99.90
53264;DHT22;39153;52.680;6.172;2023-09-12T04:54:23;18.50;99.90
53264;DHT22;39153;52.680;6.172;2023-09-12T04:56:48;18.50;99.90
53264;DHT22;39153;52.680;6.172;2023-09-12T04:59:14;18.40;99.90
53264;DHT22;39153;52.680;6.172;2023-09-12T05:01:40;18.40;99.90
53264;DHT22;39153;52.680;6.172;2023-09-12T05:04:06;18.40;99.90
53264;DHT22;39153;52.680;6.172;2023-09-12T05:06:31;18.50;99.90
53264;DHT22;39153;52.680;6.172;2023-09-12T05:08:57;18.40;99.90
53264;DHT22;39153;52.680;6.172;2023-09-12T05:11:23;18.40;99.90
53264;DHT22;39153;52.680;6.172;2023-09-12T05:13:50;18.50;99.90
53264;DHT22;39153;52.680;6.172;2023-09-12T05:16:15;18.50;99.90
53264;DHT22;39153;52.680;6.172;2023-09-12T05:18:41;18.60;99.90
53264;DHT22;39153;52.680;6.172;2023-09-12T05:21:07;18.60;99.90
53264;DHT22;39153;52.680;6.172;2023-09-12T05:23:33;18.50;99.90
53264;DHT22;39153;52.680;6.172;2023-09-12T05:25:58;18.60;99.90
53264;DHT22;39153;52.680;6.172;2023-09-12T05:28:24;18.60;99.90
53264;DHT22;39153;52.680;6.172;2023-09-12T05:30:50;18.50;99.90
53264;DHT22;39153;52.680;6.172;2023-09-12T05:33:16;18.40;99.90
53264;DHT22;39153;52.680;6.172;2023-09-12T05:35:41;18.30;99.90
53264;DHT22;39153;52.680;6.172;2023-09-12T05:38:07;18.40;99.90
53264;DHT22;39153;52.680;6.172;2023-09-12T05:40:33;18.40;99.90
53264;DHT22;39153;52.680;6.172;2023-09-12T05:42:58;18.50;99.90
53264;DHT22;39153;52.680;6.172;2023-09-12T05:45:24;18.50;99.90
53264;DHT22;39153;52.680;6.172;2023-09-12T05:47:50;18.40;99.90
53264;DHT22;39153;52.680;6.172;2023-09-12T05:50:16;18.40;99.90
53264;DHT22;39153;52.680;6.172;2023-09-12T05:52:42;18.50;99.90
53264;DHT22;39153;52.680;6.172;2023-09-12T05:55:10;18.50;99.90
53264;DHT22;39153;52.680;6.172;2023-09-12T05:57:36;18.50;99.90
53264;DHT22;39153;52.680;6.172;2023-09-12T06:00:01;18.50;99.90
53264;DHT22;39153;52.680;6.172;2023-09-12T06:02:35;18.60;99.90
53264;DHT22;39153;52.680;6.172;2023-09-12T06:05:01;18.50;99.90
53264;DHT22;39153;52.680;6.172;2023-09-12T06:07:27;18.50;99.90
53264;DHT22;39153;52.680;6.172;2023-09-12T06:09:52;18.40;99.90
53264;DHT22;39153;52.680;6.172;2023-09-12T06:12:18;18.60;99.90
53264;DHT22;39153;52.680;6.172;2023-09-12T06:14:44;18.70;99.90
53264;DHT22;39153;52.680;6.172;2023-09-12T06:17:09;18.70;99.90
53264;DHT22;39153;52.680;6.172;2023-09-12T06:19:35;18.80;99.90
53264;DHT22;39153;52.680;6.172;2023-09-12T06:22:01;18.80;99.90
53264;DHT22;39153;52.680;6.172;2023-09-12T06:24:27;18.70;99.90
53264;DHT22;39153;52.680;6.172;2023-09-12T06:26:53;18.90;99.90
53264;DHT22;39153;52.680;6.172;2023-09-12T06:29:19;18.90;99.90
53264;DHT22;39153;52.680;6.172;2023-09-12T06:31:44;18.80;99.90
53264;DHT22;39153;52.680;6.172;2023-09-12T06:34:10;19.00;99.90
53264;DHT22;39153;52.680;6.172;2023-09-12T06:36:36;19.20;99.90
53264;DHT22;39153;52.680;6.172;2023-09-12T06:39:03;19.10;99.90
53264;DHT22;39153;52.680;6.172;2023-09-12T06:41:31;19.10;99.90
53264;DHT22;39153;52.680;6.172;2023-09-12T06:43:56;19.30;99.90
53264;DHT22;39153;52.680;6.172;2023-09-12T06:46:24;19.40;99.90
53264;DHT22;39153;52.680;6.172;2023-09-12T06:48:50;19.50;99.90
53264;DHT22;39153;52.680;6.172;2023-09-12T06:51:16;19.50;99.90
53264;DHT22;39153;52.680;6.172;2023-09-12T06:53:43;19.40;99.90
53264;DHT22;39153;52.680;6.172;2023-09-12T06:56:09;19.40;99.90
53264;DHT22;39153;52.680;6.172;2023-09-12T06:58:34;19.50;99.90
53264;DHT22;39153;52.680;6.172;2023-09-12T07:01:07;19.60;99.90
53264;DHT22;39153;52.680;6.172;2023-09-12T07:03:36;19.80;99.90
53264;DHT22;39153;52.680;6.172;2023-09-12T07:06:03;19.80;99.90
53264;DHT22;39153;52.680;6.172;2023-09-12T07:08:30;19.80;99.90
53264;DHT22;39153;52.680;6.172;2023-09-12T07:10:56;19.90;99.90
53264;DHT22;39153;52.680;6.172;2023-09-12T07:13:23;19.70;99.90
53264;DHT22;39153;52.680;6.172;2023-09-12T07:15:50;19.70;99.90
53264;DHT22;39153;52.680;6.172;2023-09-12T07:18:16;19.90;99.90
53264;DHT22;39153;52.680;6.172;2023-09-12T07:20:42;20.00;99.90
53264;DHT22;39153;52.680;6.172;2023-09-12T07:23:07;20.20;99.90
53264;DHT22;39153;52.680;6.172;2023-09-12T07:25:40;20.00;99.90
53264;DHT22;39153;52.680;6.172;2023-09-12T07:28:08;20.10;99.90
53264;DHT22;39153;52.680;6.172;2023-09-12T07:30:34;20.20;99.90
53264;DHT22;39153;52.680;6.172;2023-09-12T07:33:00;20.50;99.90
53264;DHT22;39153;52.680;6.172;2023-09-12T07:35:27;20.50;99.90
53264;DHT22;39153;52.680;6.172;2023-09-12T07:37:53;20.30;99.90
53264;DHT22;39153;52.680;6.172;2023-09-12T07:40:18;20.40;99.90
53264;DHT22;39153;52.680;6.172;2023-09-12T07:42:44;20.50;99.90
53264;DHT22;39153;52.680;6.172;2023-09-12T07:45:10;20.30;99.90
53264;DHT22;39153;52.680;6.172;2023-09-12T07:47:36;20.30;99.90
53264;DHT22;39153;52.680;6.172;2023-09-12T07:50:02;20.30;99.90
53264;DHT22;39153;52.680;6.172;2023-09-12T07:52:29;20.50;99.90
53264;DHT22;39153;52.680;6.172;2023-09-12T07:54:59;20.50;99.90
53264;DHT22;39153;52.680;6.172;2023-09-12T07:57:25;20.50;99.90
53264;DHT22;39153;52.680;6.172;2023-09-12T07:59:51;20.40;99.90
53264;DHT22;39153;52.680;6.172;2023-09-12T08:02:16;20.40;99.90
53264;DHT22;39153;52.680;6.172;2023-09-12T08:04:42;20.50;99.90
53264;DHT22;39153;52.680;6.172;2023-09-12T08:07:08;20.50;99.90
53264;DHT22;39153;52.680;6.172;2023-09-12T08:09:53;20.50;99.90
53264;DHT22;39153;52.680;6.172;2023-09-12T08:12:21;20.60;99.90
53264;DHT22;39153;52.680;6.172;2023-09-12T08:14:47;20.60;99.90
53264;DHT22;39153;52.680;6.172;2023-09-12T08:17:13;20.70;99.90
53264;DHT22;39153;52.680;6.172;2023-09-12T08:19:39;20.70;99.90
53264;DHT22;39153;52.680;6.172;2023-09-12T08:22:05;20.50;99.90
53264;DHT22;39153;52.680;6.172;2023-09-12T08:24:31;20.50;99.90
53264;DHT22;39153;52.680;6.172;2023-09-12T08:26:57;20.50;99.90
53264;DHT22;39153;52.680;6.172;2023-09-12T08:29:23;20.50;99.90
53264;DHT22;39153;52.680;6.172;2023-09-12T08:31:50;20.60;99.90
53264;DHT22;39153;52.680;6.172;2023-09-12T08:34:15;20.60;99.90
53264;DHT22;39153;52.680;6.172;2023-09-12T08:36:41;20.60;99.90
53264;DHT22;39153;52.680;6.172;2023-09-12T08:39:11;20.70;99.90
53264;DHT22;39153;52.680;6.172;2023-09-12T08:41:37;20.70;99.90
53264;DHT22;39153;52.680;6.172;2023-09-12T08:44:03;20.80;99.90
53264;DHT22;39153;52.680;6.172;2023-09-12T08:46:31;20.80;99.90
53264;DHT22;39153;52.680;6.172;2023-09-12T08:48:57;20.90;99.90
53264;DHT22;39153;52.680;6.172;2023-09-12T08:51:24;20.90;99.90
53264;DHT22;39153;52.680;6.172;2023-09-12T08:53:50;20.90;99.90
53264;DHT22;39153;52.680;6.172;2023-09-12T08:56:17;21.10;99.90
53264;DHT22;39153;52.680;6.172;2023-09-12T08:58:44;21.10;99.90
53264;DHT22;39153;52.680;6.172;2023-09-12T09:01:12;21.20;99.90
53264;DHT22;39153;52.680;6.172;2023-09-12T09:03:40;21.10;99.90
53264;DHT22;39153;52.680;6.172;2023-09-12T09:06:08;21.20;99.90
53264;DHT22;39153;52.680;6.172;2023-09-12T09:08:34;21.20;99.90
53264;DHT22;39153;52.680;6.172;2023-09-12T09:11:01;21.40;99.90
53264;DHT22;39153;52.680;6.172;2023-09-12T09:13:34;21.40;99.90
53264;DHT22;39153;52.680;6.172;2023-09-12T09:16:18;21.50;99.90
53264;DHT22;39153;52.680;6.172;2023-09-12T09:19:05;21.60;99.90
53264;DHT22;39153;52.680;6.172;2023-09-12T09:21:35;21.80;99.90
53264;DHT22;39153;52.680;6.172;2023-09-12T09:24:05;22.00;99.90
53264;DHT22;39153;52.680;6.172;2023-09-12T09:26:48;22.10;99.90
53264;DHT22;39153;52.680;6.172;2023-09-12T09:29:20;22.40;99.90
53264;DHT22;39153;52.680;6.172;2023-09-12T09:31:48;22.60;99.90
53264;DHT22;39153;52.680;6.172;2023-09-12T09:34:17;22.70;99.90
53264;DHT22;39153;52.680;6.172;2023-09-12T09:36:50;22.70;99.90
53264;DHT22;39153;52.680;6.172;2023-09-12T09:39:17;22.80;99.90
53264;DHT22;39153;52.680;6.172;2023-09-12T09:41:50;22.70;99.90
53264;DHT22;39153;52.680;6.172;2023-09-12T09:44:17;22.90;99.90
53264;DHT22;39153;52.680;6.172;2023-09-12T09:46:46;22.90;99.90
53264;DHT22;39153;52.680;6.172;2023-09-12T09:49:16;23.10;99.90
53264;DHT22;39153;52.680;6.172;2023-09-12T09:51:44;23.20;99.90
53264;DHT22;39153;52.680;6.172;2023-09-12T09:54:11;23.20;99.90
53264;DHT22;39153;52.680;6.172;2023-09-12T09:56:52;23.20;99.90
53264;DHT22;39153;52.680;6.172;2023-09-12T09:59:28;23.20;99.90
53264;DHT22;39153;52.680;6.172;2023-09-12T10:01:59;23.00;99.90
53264;DHT22;39153;52.680;6.172;2023-09-12T10:04:29;23.10;99.90
53264;DHT22;39153;52.680;6.172;2023-09-12T10:06:56;23.10;99.90
53264;DHT22;39153;52.680;6.172;2023-09-12T10:09:23;23.20;99.90
53264;DHT22;39153;52.680;6.172;2023-09-12T10:11:51;23.30;99.90
53264;DHT22;39153;52.680;6.172;2023-09-12T10:14:19;23.40;99.90
53264;DHT22;39153;52.680;6.172;2023-09-12T10:16:47;23.50;99.90
53264;DHT22;39153;52.680;6.172;2023-09-12T10:19:24;23.50;99.90
53264;DHT22;39153;52.680;6.172;2023-09-12T10:22:09;23.60;99.90
53264;DHT22;39153;52.680;6.172;2023-09-12T10:24:37;23.80;99.90
53264;DHT22;39153;52.680;6.172;2023-09-12T10:27:05;24.10;99.90
53264;DHT22;39153;52.680;6.172;2023-09-12T10:29:31;24.10;99.90
53264;DHT22;39153;52.680;6.172;2023-09-12T10:31:58;24.20;99.90
53264;DHT22;39153;52.680;6.172;2023-09-12T10:34:25;24.10;99.90
53264;DHT22;39153;52.680;6.172;2023-09-12T10:36:52;24.10;99.90
53264;DHT22;39153;52.680;6.172;2023-09-12T10:39:20;23.90;99.90
53264;DHT22;39153;52.680;6.172;2023-09-12T10:41:49;23.90;99.90
53264;DHT22;39153;52.680;6.172;2023-09-12T10:44:16;23.80;99.90
53264;DHT22;39153;52.680;6.172;2023-09-12T10:46:45;23.80;99.90
53264;DHT22;39153;52.680;6.172;2023-09-12T10:49:13;23.80;99.90
53264;DHT22;39153;52.680;6.172;2023-09-12T10:51:43;23.80;99.90
53264;DHT22;39153;52.680;6.172;2023-09-12T10:54:14;23.80;99.90
53264;DHT22;39153;52.680;6.172;2023-09-12T10:56:40;23.80;99.90
53264;DHT22;39153;52.680;6.172;2023-09-12T11:01:52;24.30;99.90
53264;DHT22;39153;52.680;6.172;2023-09-12T11:06:50;24.10;99.90
53264;DHT22;39153;52.680;6.172;2023-09-12T11:09:17;24.30;99.90
53264;DHT22;39153;52.680;6.172;2023-09-12T11:11:49;24.40;99.90
53264;DHT22;39153;52.680;6.172;2023-09-12T11:14:19;24.70;99.90
53264;DHT22;39153;52.680;6.172;2023-09-12T11:19:50;25.10;99.90
53264;DHT22;39153;52.680;6.172;2023-09-12T11:22:24;25.40;99.90
53264;DHT22;39153;52.680;6.172;2023-09-12T11:24:51;25.40;99.90
53264;DHT22;39153;52.680;6.172;2023-09-12T11:27:17;25.40;99.90
53264;DHT22;39153;52.680;6.172;2023-09-12T11:29:43;25.30;99.90
53264;DHT22;39153;52.680;6.172;2023-09-12T11:32:09;25.30;99.90
53264;DHT22;39153;52.680;6.172;2023-09-12T11:34:42;25.20;99.90
53264;DHT22;39153;52.680;6.172;2023-09-12T11:37:08;25.10;99.90
53264;DHT22;39153;52.680;6.172;2023-09-12T11:39:36;25.20;99.90
53264;DHT22;39153;52.680;6.172;2023-09-12T11:42:03;25.30;99.90
53264;DHT22;39153;52.680;6.172;2023-09-12T11:44:30;25.40;99.90
53264;DHT22;39153;52.680;6.172;2023-09-12T11:47:00;25.50;99.90
53264;DHT22;39153;52.680;6.172;2023-09-12T11:49:41;25.70;99.90
53264;DHT22;39153;52.680;6.172;2023-09-12T11:52:15;25.90;99.90
53264;DHT22;39153;52.680;6.172;2023-09-12T11:54:45;25.80;99.90
53264;DHT22;39153;52.680;6.172;2023-09-12T11:57:13;25.90;99.90
53264;DHT22;39153;52.680;6.172;2023-09-12T11:59:46;26.00;99.90
53264;DHT22;39153;52.680;6.172;2023-09-12T12:02:14;26.00;99.90
53264;DHT22;39153;52.680;6.172;2023-09-12T12:04:40;26.20;99.90
53264;DHT22;39153;52.680;6.172;2023-09-12T12:07:06;26.30;99.90
53264;DHT22;39153;52.680;6.172;2023-09-12T12:09:32;26.30;99.90
53264;DHT22;39153;52.680;6.172;2023-09-12T12:12:24;26.30;99.90
53264;DHT22;39153;52.680;6.172;2023-09-12T12:14:50;26.20;99.90
53264;DHT22;39153;52.680;6.172;2023-09-12T12:17:16;26.20;99.90
53264;DHT22;39153;52.680;6.172;2023-09-12T12:19:45;26.30;99.90
53264;DHT22;39153;52.680;6.172;2023-09-12T12:22:11;26.40;99.90
53264;DHT22;39153;52.680;6.172;2023-09-12T12:24:39;26.40;99.90
53264;DHT22;39153;52.680;6.172;2023-09-12T12:27:05;26.40;99.90
53264;DHT22;39153;52.680;6.172;2023-09-12T12:29:30;26.40;99.90
53264;DHT22;39153;52.680;6.172;2023-09-12T12:32:02;26.40;99.90
53264;DHT22;39153;52.680;6.172;2023-09-12T12:34:27;26.50;99.90
53264;DHT22;39153;52.680;6.172;2023-09-12T12:36:56;26.40;99.90
53264;DHT22;39153;52.680;6.172;2023-09-12T12:39:22;26.50;99.90
53264;DHT22;39153;52.680;6.172;2023-09-12T12:41:49;26.70;99.90
53264;DHT22;39153;52.680;6.172;2023-09-12T12:44:16;26.90;99.90
53264;DHT22;39153;52.680;6.172;2023-09-12T12:46:53;27.10;99.90
53264;DHT22;39153;52.680;6.172;2023-09-12T12:49:19;27.50;99.90
53264;DHT22;39153;52.680;6.172;2023-09-12T12:51:47;27.50;99.90
53264;DHT22;39153;52.680;6.172;2023-09-12T12:54:13;27.50;99.90
53264;DHT22;39153;52.680;6.172;2023-09-12T12:56:39;27.30;99.90
53264;DHT22;39153;52.680;6.172;2023-09-12T12:59:06;27.10;99.90
53264;DHT22;39153;52.680;6.172;2023-09-12T13:01:38;27.00;99.90
53264;DHT22;39153;52.680;6.172;2023-09-12T13:04:10;26.80;99.90
53264;DHT22;39153;52.680;6.172;2023-09-12T13:06:36;26.60;99.90
53264;DHT22;39153;52.680;6.172;2023-09-12T13:09:03;26.60;99.90
53264;DHT22;39153;52.680;6.172;2023-09-12T13:11:33;26.80;99.90
53264;DHT22;39153;52.680;6.172;2023-09-12T13:14:00;27.10;99.90
53264;DHT22;39153;52.680;6.172;2023-09-12T13:16:26;27.40;99.90
53264;DHT22;39153;52.680;6.172;2023-09-12T13:18:52;27.50;99.90
53264;DHT22;39153;52.680;6.172;2023-09-12T13:21:18;27.50;99.90
53264;DHT22;39153;52.680;6.172;2023-09-12T13:23:43;27.50;99.90
53264;DHT22;39153;52.680;6.172;2023-09-12T13:26:09;27.50;99.90
53264;DHT22;39153;52.680;6.172;2023-09-12T13:28:36;27.70;99.90
53264;DHT22;39153;52.680;6.172;2023-09-12T13:31:02;27.90;99.90
53264;DHT22;39153;52.680;6.172;2023-09-12T13:33:29;28.00;99.90
53264;DHT22;39153;52.680;6.172;2023-09-12T13:35:54;28.10;99.90
53264;DHT22;39153;52.680;6.172;2023-09-12T13:38:20;28.00;99.90
53264;DHT22;39153;52.680;6.172;2023-09-12T13:40:47;27.90;99.90
53264;DHT22;39153;52.680;6.172;2023-09-12T13:43:13;28.00;99.90
53264;DHT22;39153;52.680;6.172;2023-09-12T13:45:39;28.00;99.90
53264;DHT22;39153;52.680;6.172;2023-09-12T13:48:06;28.00;99.90
53264;DHT22;39153;52.680;6.172;2023-09-12T13:50:32;28.00;99.90
53264;DHT22;39153;52.680;6.172;2023-09-12T13:52:59;28.20;99.90
53264;DHT22;39153;52.680;6.172;2023-09-12T13:55:26;28.40;99.90
53264;DHT22;39153;52.680;6.172;2023-09-12T13:57:51;28.50;99.90
53264;DHT22;39153;52.680;6.172;2023-09-12T14:00:17;28.60;99.90
53264;DHT22;39153;52.680;6.172;2023-09-12T14:02:43;28.60;99.90
53264;DHT22;39153;52.680;6.172;2023-09-12T14:05:11;28.40;99.90
53264;DHT22;39153;52.680;6.172;2023-09-12T14:07:37;28.20;99.90
53264;DHT22;39153;52.680;6.172;2023-09-12T14:10:08;28.10;99.90
53264;DHT22;39153;52.680;6.172;2023-09-12T14:12:33;28.20;99.90
53264;DHT22;39153;52.680;6.172;2023-09-12T14:15:00;28.30;99.90
53264;DHT22;39153;52.680;6.172;2023-09-12T14:17:25;28.30;99.90
53264;DHT22;39153;52.680;6.172;2023-09-12T14:19:52;28.10;99.90
53264;DHT22;39153;52.680;6.172;2023-09-12T14:22:18;27.90;99.90
53264;DHT22;39153;52.680;6.172;2023-09-12T14:24:44;27.70;99.90
53264;DHT22;39153;52.680;6.172;2023-09-12T14:27:09;27.50;99.90
53264;DHT22;39153;52.680;6.172;2023-09-12T14:29:35;27.40;99.90
53264;DHT22;39153;52.680;6.172;2023-09-12T14:32:01;27.20;99.90
53264;DHT22;39153;52.680;6.172;2023-09-12T14:34:27;27.20;99.90
53264;DHT22;39153;52.680;6.172;2023-09-12T14:36:56;27.50;99.90
53264;DHT22;39153;52.680;6.172;2023-09-12T14:39:23;27.90;99.90
53264;DHT22;39153;52.680;6.172;2023-09-12T14:41:49;28.20;99.90
53264;DHT22;39153;52.680;6.172;2023-09-12T14:44:21;28.40;99.90
53264;DHT22;39153;52.680;6.172;2023-09-12T14:46:47;28.40;99.90
53264;DHT22;39153;52.680;6.172;2023-09-12T14:49:12;28.10;99.90
53264;DHT22;39153;52.680;6.172;2023-09-12T14:51:38;27.80;99.90
53264;DHT22;39153;52.680;6.172;2023-09-12T14:54:04;27.50;99.90
53264;DHT22;39153;52.680;6.172;2023-09-12T14:56:31;27.40;99.90
53264;DHT22;39153;52.680;6.172;2023-09-12T14:58:58;27.40;99.90
53264;DHT22;39153;52.680;6.172;2023-09-12T15:01:23;27.30;99.90
53264;DHT22;39153;52.680;6.172;2023-09-12T15:03:51;27.30;99.90
53264;DHT22;39153;52.680;6.172;2023-09-12T15:06:17;27.30;99.90
53264;DHT22;39153;52.680;6.172;2023-09-12T15:08:43;27.30;99.90
53264;DHT22;39153;52.680;6.172;2023-09-12T15:11:09;27.20;99.90
53264;DHT22;39153;52.680;6.172;2023-09-12T15:13:34;27.20;99.90
53264;DHT22;39153;52.680;6.172;2023-09-12T15:16:01;27.30;99.90
53264;DHT22;39153;52.680;6.172;2023-09-12T15:18:27;27.40;99.90
53264;DHT22;39153;52.680;6.172;2023-09-12T15:20:53;27.50;99.90
53264;DHT22;39153;52.680;6.172;2023-09-12T15:23:19;27.60;99.90
53264;DHT22;39153;52.680;6.172;2023-09-12T15:25:47;27.80;99.90
53264;DHT22;39153;52.680;6.172;2023-09-12T15:28:13;28.00;99.90
53264;DHT22;39153;52.680;6.172;2023-09-12T15:30:38;28.30;99.90
53264;DHT22;39153;52.680;6.172;2023-09-12T15:33:04;28.50;99.90
53264;DHT22;39153;52.680;6.172;2023-09-12T15:35:30;28.50;99.90
53264;DHT22;39153;52.680;6.172;2023-09-12T15:37:55;28.70;99.90
53264;DHT22;39153;52.680;6.172;2023-09-12T15:40:21;28.70;99.90
53264;DHT22;39153;52.680;6.172;2023-09-12T15:42:47;28.80;99.90
53264;DHT22;39153;52.680;6.172;2023-09-12T15:45:12;28.80;99.90
53264;DHT22;39153;52.680;6.172;2023-09-12T15:47:38;28.70;99.90